sensor_id;sensor_type;location;lat;lon;timestamp;P1;durP1;ratioP1;P2;durP2;ratioP2
64142;SDS011;50437;51.970;5.904;2023-03-04T00:02:05;22.88;;;1.73;;
64142;SDS011;50437;51.970;5.904;2023-03-04T00:04:32;20.40;;;1.25;;
64142;SDS011;50437;51.970;5.904;2023-03-04T00:06:58;18.77;;;0.98;;
64142;SDS011;50437;51.970;5.904;2023-03-04T00:09:24;18.63;;;2.25;;
64142;SDS011;50437;51.970;5.904;2023-03-04T00:11:51;16.50;;;1.17;;
64142;SDS011;50437;51.970;5.904;2023-03-04T00:14:17;19.27;;;1.08;;
64142;SDS011;50437;51.970;5.904;2023-03-04T00:16:43;14.00;;;1.20;;
64142;SDS011;50437;51.970;5.904;2023-03-04T00:19:09;20.40;;;1.58;;
64142;SDS011;50437;51.970;5.904;2023-03-04T00:21:36;21.38;;;1.65;;
64142;SDS011;50437;51.970;5.904;2023-03-04T00:24:02;16.25;;;1.90;;
64142;SDS011;50437;51.970;5.904;2023-03-04T00:26:31;13.48;;;1.20;;
64142;SDS011;50437;51.970;5.904;2023-03-04T00:29:00;17.10;;;1.58;;
64142;SDS011;50437;51.970;5.904;2023-03-04T00:31:26;27.38;;;0.90;;
64142;SDS011;50437;51.970;5.904;2023-03-04T00:33:52;19.00;;;1.50;;
64142;SDS011;50437;51.970;5.904;2023-03-04T00:36:18;19.13;;;2.00;;
64142;SDS011;50437;51.970;5.904;2023-03-04T00:38:44;15.30;;;1.60;;
64142;SDS011;50437;51.970;5.904;2023-03-04T00:41:10;15.88;;;1.75;;
64142;SDS011;50437;51.970;5.904;2023-03-04T00:43:37;21.38;;;1.17;;
64142;SDS011;50437;51.970;5.904;2023-03-04T00:46:03;12.98;;;1.70;;
64142;SDS011;50437;51.970;5.904;2023-03-04T00:48:29;13.38;;;1.00;;
64142;SDS011;50437;51.970;5.904;2023-03-04T00:50:56;16.05;;;0.90;;
64142;SDS011;50437;51.970;5.904;2023-03-04T00:53:22;16.38;;;1.20;;
64142;SDS011;50437;51.970;5.904;2023-03-04T00:55:48;11.52;;;1.30;;
64142;SDS011;50437;51.970;5.904;2023-03-04T00:58:15;20.60;;;1.15;;
64142;SDS011;50437;51.970;5.904;2023-03-04T01:00:41;13.47;;;1.10;;
64142;SDS011;50437;51.970;5.904;2023-03-04T01:03:07;18.65;;;1.15;;
64142;SDS011;50437;51.970;5.904;2023-03-04T01:05:33;13.45;;;1.70;;
64142;SDS011;50437;51.970;5.904;2023-03-04T01:08:01;9.65;;;1.27;;
64142;SDS011;50437;51.970;5.904;2023-03-04T01:10:27;13.20;;;1.13;;
64142;SDS011;50437;51.970;5.904;2023-03-04T01:12:54;21.13;;;1.45;;
64142;SDS011;50437;51.970;5.904;2023-03-04T01:15:26;9.68;;;0.73;;
64142;SDS011;50437;51.970;5.904;2023-03-04T01:17:52;18.00;;;1.70;;
64142;SDS011;50437;51.970;5.904;2023-03-04T01:20:19;13.68;;;1.50;;
64142;SDS011;50437;51.970;5.904;2023-03-04T01:22:46;8.93;;;0.93;;
64142;SDS011;50437;51.970;5.904;2023-03-04T01:27:58;10.20;;;0.80;;
64142;SDS011;50437;51.970;5.904;2023-03-04T01:30:24;15.88;;;0.98;;
64142;SDS011;50437;51.970;5.904;2023-03-04T01:32:50;12.38;;;0.70;;
64142;SDS011;50437;51.970;5.904;2023-03-04T01:35:17;31.75;;;1.75;;
64142;SDS011;50437;51.970;5.904;2023-03-04T01:37:43;14.90;;;1.30;;
64142;SDS011;50437;51.970;5.904;2023-03-04T01:40:09;17.30;;;0.90;;
64142;SDS011;50437;51.970;5.904;2023-03-04T01:42:37;15.52;;;0.80;;
64142;SDS011;50437;51.970;5.904;2023-03-04T01:45:05;19.17;;;1.02;;
64142;SDS011;50437;51.970;5.904;2023-03-04T01:47:32;23.10;;;1.73;;
64142;SDS011;50437;51.970;5.904;2023-03-04T01:50:01;14.52;;;0.70;;
64142;SDS011;50437;51.970;5.904;2023-03-04T01:52:31;14.10;;;0.50;;
64142;SDS011;50437;51.970;5.904;2023-03-04T01:55:05;18.85;;;0.65;;
64142;SDS011;50437;51.970;5.904;2023-03-04T01:57:37;16.40;;;0.90;;
64142;SDS011;50437;51.970;5.904;2023-03-04T02:02:50;13.00;;;0.95;;
64142;SDS011;50437;51.970;5.904;2023-03-04T02:05:20;11.75;;;0.98;;
64142;SDS011;50437;51.970;5.904;2023-03-04T02:07:47;11.77;;;0.80;;
64142;SDS011;50437;51.970;5.904;2023-03-04T02:10:14;14.70;;;1.02;;
64142;SDS011;50437;51.970;5.904;2023-03-04T02:12:41;12.70;;;0.73;;
64142;SDS011;50437;51.970;5.904;2023-03-04T02:15:08;14.85;;;0.95;;
64142;SDS011;50437;51.970;5.904;2023-03-04T02:17:34;8.63;;;0.75;;
64142;SDS011;50437;51.970;5.904;2023-03-04T02:22:37;20.67;;;1.55;;
64142;SDS011;50437;51.970;5.904;2023-03-04T02:25:12;13.48;;;1.08;;
64142;SDS011;50437;51.970;5.904;2023-03-04T02:27:43;16.60;;;1.35;;
64142;SDS011;50437;51.970;5.904;2023-03-04T02:30:10;14.57;;;1.95;;
64142;SDS011;50437;51.970;5.904;2023-03-04T02:32:37;15.27;;;0.88;;
64142;SDS011;50437;51.970;5.904;2023-03-04T02:35:03;14.30;;;1.85;;
64142;SDS011;50437;51.970;5.904;2023-03-04T02:37:30;11.60;;;0.70;;
64142;SDS011;50437;51.970;5.904;2023-03-04T02:39:56;7.93;;;0.40;;
64142;SDS011;50437;51.970;5.904;2023-03-04T02:42:22;15.80;;;0.80;;
64142;SDS011;50437;51.970;5.904;2023-03-04T02:44:58;12.55;;;0.70;;
64142;SDS011;50437;51.970;5.904;2023-03-04T02:47:25;8.32;;;0.80;;
64142;SDS011;50437;51.970;5.904;2023-03-04T02:49:53;15.88;;;0.75;;
64142;SDS011;50437;51.970;5.904;2023-03-04T02:52:24;13.70;;;0.98;;
64142;SDS011;50437;51.970;5.904;2023-03-04T02:54:50;12.63;;;0.85;;
64142;SDS011;50437;51.970;5.904;2023-03-04T02:57:17;11.75;;;1.38;;
64142;SDS011;50437;51.970;5.904;2023-03-04T02:59:47;11.63;;;0.43;;
64142;SDS011;50437;51.970;5.904;2023-03-04T03:02:18;15.60;;;0.65;;
64142;SDS011;50437;51.970;5.904;2023-03-04T03:04:44;19.83;;;1.05;;
64142;SDS011;50437;51.970;5.904;2023-03-04T03:07:13;21.58;;;1.13;;
64142;SDS011;50437;51.970;5.904;2023-03-04T03:09:40;18.50;;;1.50;;
64142;SDS011;50437;51.970;5.904;2023-03-04T03:12:07;9.87;;;0.60;;
64142;SDS011;50437;51.970;5.904;2023-03-04T03:14:33;6.45;;;0.85;;
64142;SDS011;50437;51.970;5.904;2023-03-04T03:17:00;10.88;;;0.70;;
64142;SDS011;50437;51.970;5.904;2023-03-04T03:19:26;10.65;;;0.60;;
64142;SDS011;50437;51.970;5.904;2023-03-04T03:21:54;20.05;;;1.27;;
64142;SDS011;50437;51.970;5.904;2023-03-04T03:24:20;10.27;;;0.80;;
64142;SDS011;50437;51.970;5.904;2023-03-04T03:26:46;7.97;;;0.50;;
64142;SDS011;50437;51.970;5.904;2023-03-04T03:31:39;14.00;;;0.88;;
64142;SDS011;50437;51.970;5.904;2023-03-04T03:34:05;10.57;;;0.75;;
64142;SDS011;50437;51.970;5.904;2023-03-04T03:36:31;7.80;;;0.63;;
64142;SDS011;50437;51.970;5.904;2023-03-04T03:38:58;9.27;;;0.30;;
64142;SDS011;50437;51.970;5.904;2023-03-04T03:41:24;21.75;;;0.60;;
64142;SDS011;50437;51.970;5.904;2023-03-04T03:43:50;16.95;;;0.50;;
64142;SDS011;50437;51.970;5.904;2023-03-04T03:46:16;8.40;;;0.40;;
64142;SDS011;50437;51.970;5.904;2023-03-04T03:48:42;11.77;;;0.68;;
64142;SDS011;50437;51.970;5.904;2023-03-04T03:51:08;11.52;;;0.57;;
64142;SDS011;50437;51.970;5.904;2023-03-04T03:53:35;9.13;;;0.50;;
64142;SDS011;50437;51.970;5.904;2023-03-04T03:56:01;7.90;;;0.50;;
64142;SDS011;50437;51.970;5.904;2023-03-04T03:58:27;13.07;;;0.55;;
64142;SDS011;50437;51.970;5.904;2023-03-04T04:00:53;14.32;;;0.73;;
64142;SDS011;50437;51.970;5.904;2023-03-04T04:03:19;14.45;;;1.20;;
64142;SDS011;50437;51.970;5.904;2023-03-04T04:05:45;18.70;;;1.10;;
64142;SDS011;50437;51.970;5.904;2023-03-04T04:08:15;18.67;;;0.52;;
64142;SDS011;50437;51.970;5.904;2023-03-04T04:10:42;10.13;;;0.60;;
64142;SDS011;50437;51.970;5.904;2023-03-04T04:13:08;10.80;;;1.67;;
64142;SDS011;50437;51.970;5.904;2023-03-04T04:15:35;12.50;;;1.20;;
64142;SDS011;50437;51.970;5.904;2023-03-04T04:18:03;16.20;;;0.70;;
64142;SDS011;50437;51.970;5.904;2023-03-04T04:20:31;15.27;;;0.88;;
64142;SDS011;50437;51.970;5.904;2023-03-04T04:22:57;12.53;;;1.73;;
64142;SDS011;50437;51.970;5.904;2023-03-04T04:25:23;10.65;;;1.10;;
64142;SDS011;50437;51.970;5.904;2023-03-04T04:27:49;12.50;;;0.73;;
64142;SDS011;50437;51.970;5.904;2023-03-04T04:30:15;14.65;;;0.90;;
64142;SDS011;50437;51.970;5.904;2023-03-04T04:32:42;21.90;;;0.90;;
64142;SDS011;50437;51.970;5.904;2023-03-04T04:35:09;13.52;;;0.50;;
64142;SDS011;50437;51.970;5.904;2023-03-04T04:37:35;13.93;;;0.90;;
64142;SDS011;50437;51.970;5.904;2023-03-04T04:40:02;18.67;;;0.60;;
64142;SDS011;50437;51.970;5.904;2023-03-04T04:42:29;15.35;;;0.65;;
64142;SDS011;50437;51.970;5.904;2023-03-04T04:44:55;13.43;;;1.15;;
64142;SDS011;50437;51.970;5.904;2023-03-04T04:47:22;9.82;;;1.10;;
64142;SDS011;50437;51.970;5.904;2023-03-04T04:49:48;13.70;;;0.60;;
64142;SDS011;50437;51.970;5.904;2023-03-04T04:52:14;13.13;;;0.40;;
64142;SDS011;50437;51.970;5.904;2023-03-04T04:54:40;13.32;;;0.70;;
64142;SDS011;50437;51.970;5.904;2023-03-04T04:57:06;4.90;;;0.65;;
64142;SDS011;50437;51.970;5.904;2023-03-04T04:59:32;9.20;;;0.40;;
64142;SDS011;50437;51.970;5.904;2023-03-04T05:01:58;16.25;;;0.50;;
64142;SDS011;50437;51.970;5.904;2023-03-04T05:04:25;10.90;;;0.70;;
64142;SDS011;50437;51.970;5.904;2023-03-04T05:06:51;12.23;;;0.65;;
64142;SDS011;50437;51.970;5.904;2023-03-04T05:09:17;8.65;;;0.40;;
64142;SDS011;50437;51.970;5.904;2023-03-04T05:11:45;13.50;;;0.77;;
64142;SDS011;50437;51.970;5.904;2023-03-04T05:14:11;11.00;;;0.40;;
64142;SDS011;50437;51.970;5.904;2023-03-04T05:16:37;10.20;;;0.30;;
64142;SDS011;50437;51.970;5.904;2023-03-04T05:19:03;11.63;;;0.88;;
64142;SDS011;50437;51.970;5.904;2023-03-04T05:21:29;16.63;;;1.27;;
64142;SDS011;50437;51.970;5.904;2023-03-04T05:23:55;13.15;;;1.95;;
64142;SDS011;50437;51.970;5.904;2023-03-04T05:26:22;12.55;;;0.40;;
64142;SDS011;50437;51.970;5.904;2023-03-04T05:28:48;15.90;;;0.93;;
64142;SDS011;50437;51.970;5.904;2023-03-04T05:31:14;18.23;;;0.98;;
64142;SDS011;50437;51.970;5.904;2023-03-04T05:33:40;6.18;;;0.30;;
64142;SDS011;50437;51.970;5.904;2023-03-04T05:36:07;11.57;;;1.05;;
64142;SDS011;50437;51.970;5.904;2023-03-04T05:38:34;9.65;;;0.82;;
64142;SDS011;50437;51.970;5.904;2023-03-04T05:41:02;5.93;;;0.40;;
64142;SDS011;50437;51.970;5.904;2023-03-04T05:43:31;5.13;;;0.45;;
64142;SDS011;50437;51.970;5.904;2023-03-04T05:46:00;9.52;;;0.68;;
64142;SDS011;50437;51.970;5.904;2023-03-04T05:48:28;8.93;;;0.47;;
64142;SDS011;50437;51.970;5.904;2023-03-04T05:50:55;12.53;;;0.33;;
64142;SDS011;50437;51.970;5.904;2023-03-04T05:53:25;9.43;;;0.52;;
64142;SDS011;50437;51.970;5.904;2023-03-04T05:55:52;14.35;;;0.38;;
64142;SDS011;50437;51.970;5.904;2023-03-04T05:58:18;7.53;;;0.90;;
64142;SDS011;50437;51.970;5.904;2023-03-04T06:00:44;8.90;;;0.40;;
64142;SDS011;50437;51.970;5.904;2023-03-04T06:03:12;10.65;;;3.35;;
64142;SDS011;50437;51.970;5.904;2023-03-04T06:05:40;4.85;;;0.40;;
64142;SDS011;50437;51.970;5.904;2023-03-04T06:08:06;9.02;;;1.05;;
64142;SDS011;50437;51.970;5.904;2023-03-04T06:10:32;11.48;;;0.30;;
64142;SDS011;50437;51.970;5.904;2023-03-04T06:12:58;17.08;;;0.95;;
64142;SDS011;50437;51.970;5.904;2023-03-04T06:15:25;12.80;;;1.38;;
64142;SDS011;50437;51.970;5.904;2023-03-04T06:17:51;8.82;;;0.28;;
64142;SDS011;50437;51.970;5.904;2023-03-04T06:20:17;11.55;;;0.77;;
64142;SDS011;50437;51.970;5.904;2023-03-04T06:22:43;12.80;;;1.77;;
64142;SDS011;50437;51.970;5.904;2023-03-04T06:25:09;7.07;;;0.57;;
64142;SDS011;50437;51.970;5.904;2023-03-04T06:27:35;8.00;;;0.40;;
64142;SDS011;50437;51.970;5.904;2023-03-04T06:30:02;14.82;;;1.42;;
64142;SDS011;50437;51.970;5.904;2023-03-04T06:32:28;10.32;;;0.85;;
64142;SDS011;50437;51.970;5.904;2023-03-04T06:34:54;7.50;;;0.40;;
64142;SDS011;50437;51.970;5.904;2023-03-04T06:37:21;11.23;;;0.50;;
64142;SDS011;50437;51.970;5.904;2023-03-04T06:39:47;14.20;;;0.45;;
64142;SDS011;50437;51.970;5.904;2023-03-04T06:42:13;12.02;;;0.75;;
64142;SDS011;50437;51.970;5.904;2023-03-04T06:44:40;6.07;;;0.82;;
64142;SDS011;50437;51.970;5.904;2023-03-04T06:47:06;11.77;;;1.45;;
64142;SDS011;50437;51.970;5.904;2023-03-04T06:49:32;9.85;;;0.32;;
64142;SDS011;50437;51.970;5.904;2023-03-04T06:51:59;12.00;;;0.93;;
64142;SDS011;50437;51.970;5.904;2023-03-04T06:54:25;14.95;;;1.85;;
64142;SDS011;50437;51.970;5.904;2023-03-04T06:56:54;1.42;;;0.43;;
64142;SDS011;50437;51.970;5.904;2023-03-04T06:59:20;8.98;;;0.80;;
64142;SDS011;50437;51.970;5.904;2023-03-04T07:01:46;9.07;;;0.45;;
64142;SDS011;50437;51.970;5.904;2023-03-04T07:04:13;9.65;;;0.70;;
64142;SDS011;50437;51.970;5.904;2023-03-04T07:06:39;10.60;;;0.60;;
64142;SDS011;50437;51.970;5.904;2023-03-04T07:09:05;8.47;;;0.60;;
64142;SDS011;50437;51.970;5.904;2023-03-04T07:11:34;12.45;;;1.15;;
64142;SDS011;50437;51.970;5.904;2023-03-04T07:14:00;11.18;;;0.77;;
64142;SDS011;50437;51.970;5.904;2023-03-04T07:16:26;11.38;;;1.08;;
64142;SDS011;50437;51.970;5.904;2023-03-04T07:18:52;12.53;;;0.60;;
64142;SDS011;50437;51.970;5.904;2023-03-04T07:21:18;12.55;;;1.35;;
64142;SDS011;50437;51.970;5.904;2023-03-04T07:23:45;7.40;;;0.68;;
64142;SDS011;50437;51.970;5.904;2023-03-04T07:26:14;15.40;;;1.15;;
64142;SDS011;50437;51.970;5.904;2023-03-04T07:28:41;12.27;;;1.10;;
64142;SDS011;50437;51.970;5.904;2023-03-04T07:31:12;8.35;;;0.60;;
64142;SDS011;50437;51.970;5.904;2023-03-04T07:33:47;14.80;;;0.73;;
64142;SDS011;50437;51.970;5.904;2023-03-04T07:36:13;16.48;;;1.48;;
64142;SDS011;50437;51.970;5.904;2023-03-04T07:38:43;11.80;;;1.53;;
64142;SDS011;50437;51.970;5.904;2023-03-04T07:41:11;9.95;;;0.98;;
64142;SDS011;50437;51.970;5.904;2023-03-04T07:43:37;12.13;;;0.77;;
64142;SDS011;50437;51.970;5.904;2023-03-04T07:46:04;9.83;;;0.43;;
64142;SDS011;50437;51.970;5.904;2023-03-04T07:48:30;9.32;;;1.17;;
64142;SDS011;50437;51.970;5.904;2023-03-04T07:51:13;14.52;;;1.02;;
64142;SDS011;50437;51.970;5.904;2023-03-04T07:53:45;14.63;;;0.90;;
64142;SDS011;50437;51.970;5.904;2023-03-04T07:56:13;4.55;;;0.35;;
64142;SDS011;50437;51.970;5.904;2023-03-04T07:58:47;8.73;;;0.60;;
64142;SDS011;50437;51.970;5.904;2023-03-04T08:01:22;5.78;;;0.38;;
64142;SDS011;50437;51.970;5.904;2023-03-04T08:03:50;15.23;;;1.25;;
64142;SDS011;50437;51.970;5.904;2023-03-04T08:06:17;13.65;;;1.10;;
64142;SDS011;50437;51.970;5.904;2023-03-04T08:08:44;11.75;;;0.70;;
64142;SDS011;50437;51.970;5.904;2023-03-04T08:11:12;4.43;;;0.75;;
64142;SDS011;50437;51.970;5.904;2023-03-04T08:13:43;6.43;;;0.30;;
64142;SDS011;50437;51.970;5.904;2023-03-04T08:16:13;6.78;;;0.60;;
64142;SDS011;50437;51.970;5.904;2023-03-04T08:18:44;7.88;;;0.77;;
64142;SDS011;50437;51.970;5.904;2023-03-04T08:21:12;8.25;;;0.43;;
64142;SDS011;50437;51.970;5.904;2023-03-04T08:26:08;8.98;;;0.85;;
64142;SDS011;50437;51.970;5.904;2023-03-04T08:28:36;9.25;;;0.50;;
64142;SDS011;50437;51.970;5.904;2023-03-04T08:31:02;11.35;;;0.60;;
64142;SDS011;50437;51.970;5.904;2023-03-04T08:33:29;9.13;;;0.40;;
64142;SDS011;50437;51.970;5.904;2023-03-04T08:35:56;4.55;;;0.38;;
64142;SDS011;50437;51.970;5.904;2023-03-04T08:38:22;9.05;;;0.80;;
64142;SDS011;50437;51.970;5.904;2023-03-04T08:40:52;10.55;;;0.98;;
64142;SDS011;50437;51.970;5.904;2023-03-04T08:43:22;9.82;;;0.77;;
64142;SDS011;50437;51.970;5.904;2023-03-04T08:45:49;14.00;;;1.48;;
64142;SDS011;50437;51.970;5.904;2023-03-04T08:48:17;10.75;;;0.47;;
64142;SDS011;50437;51.970;5.904;2023-03-04T08:50:44;8.73;;;1.05;;
64142;SDS011;50437;51.970;5.904;2023-03-04T08:55:37;15.20;;;1.00;;
64142;SDS011;50437;51.970;5.904;2023-03-04T09:00:31;12.27;;;1.00;;
64142;SDS011;50437;51.970;5.904;2023-03-04T09:03:00;7.55;;;0.55;;
64142;SDS011;50437;51.970;5.904;2023-03-04T09:05:28;5.50;;;0.60;;
64142;SDS011;50437;51.970;5.904;2023-03-04T09:10:21;6.55;;;0.50;;
64142;SDS011;50437;51.970;5.904;2023-03-04T09:12:47;3.60;;;0.40;;
64142;SDS011;50437;51.970;5.904;2023-03-04T09:15:14;9.88;;;0.60;;
64142;SDS011;50437;51.970;5.904;2023-03-04T09:17:40;6.73;;;0.70;;
64142;SDS011;50437;51.970;5.904;2023-03-04T09:20:07;5.73;;;0.50;;
64142;SDS011;50437;51.970;5.904;2023-03-04T09:22:38;5.18;;;0.65;;
64142;SDS011;50437;51.970;5.904;2023-03-04T09:25:05;8.18;;;0.90;;
64142;SDS011;50437;51.970;5.904;2023-03-04T09:27:31;18.27;;;0.60;;
64142;SDS011;50437;51.970;5.904;2023-03-04T09:29:57;9.45;;;1.17;;
64142;SDS011;50437;51.970;5.904;2023-03-04T09:32:24;5.57;;;1.03;;
64142;SDS011;50437;51.970;5.904;2023-03-04T09:34:50;6.50;;;0.77;;
64142;SDS011;50437;51.970;5.904;2023-03-04T09:37:16;7.97;;;1.05;;
64142;SDS011;50437;51.970;5.904;2023-03-04T09:39:42;8.43;;;0.45;;
64142;SDS011;50437;51.970;5.904;2023-03-04T09:42:10;4.50;;;0.82;;
64142;SDS011;50437;51.970;5.904;2023-03-04T09:44:48;5.22;;;0.50;;
64142;SDS011;50437;51.970;5.904;2023-03-04T09:47:16;6.60;;;1.95;;
64142;SDS011;50437;51.970;5.904;2023-03-04T09:49:46;5.10;;;0.75;;
64142;SDS011;50437;51.970;5.904;2023-03-04T09:55:22;5.18;;;0.82;;
64142;SDS011;50437;51.970;5.904;2023-03-04T10:03:56;3.15;;;0.50;;
64142;SDS011;50437;51.970;5.904;2023-03-04T10:06:26;4.60;;;0.68;;
64142;SDS011;50437;51.970;5.904;2023-03-04T10:09:12;4.60;;;0.35;;
64142;SDS011;50437;51.970;5.904;2023-03-04T10:12:17;4.32;;;0.40;;
64142;SDS011;50437;51.970;5.904;2023-03-04T10:14:41;2.08;;;0.50;;
64142;SDS011;50437;51.970;5.904;2023-03-04T10:17:13;3.08;;;0.47;;
64142;SDS011;50437;51.970;5.904;2023-03-04T10:22:38;3.40;;;0.20;;
64142;SDS011;50437;51.970;5.904;2023-03-04T10:27:43;2.53;;;0.30;;
64142;SDS011;50437;51.970;5.904;2023-03-04T10:30:22;0.63;;;0.30;;
64142;SDS011;50437;51.970;5.904;2023-03-04T10:33:01;6.03;;;0.30;;
64142;SDS011;50437;51.970;5.904;2023-03-04T10:35:30;2.07;;;0.50;;
64142;SDS011;50437;51.970;5.904;2023-03-04T10:38:00;3.95;;;0.80;;
64142;SDS011;50437;51.970;5.904;2023-03-04T10:40:28;3.78;;;0.30;;
64142;SDS011;50437;51.970;5.904;2023-03-04T10:43:01;5.35;;;0.40;;
64142;SDS011;50437;51.970;5.904;2023-03-04T10:45:36;3.30;;;0.38;;
64142;SDS011;50437;51.970;5.904;2023-03-04T10:48:03;3.03;;;0.30;;
64142;SDS011;50437;51.970;5.904;2023-03-04T10:50:30;3.13;;;0.38;;
64142;SDS011;50437;51.970;5.904;2023-03-04T10:52:59;1.20;;;0.25;;
64142;SDS011;50437;51.970;5.904;2023-03-04T10:55:29;3.60;;;1.27;;
64142;SDS011;50437;51.970;5.904;2023-03-04T10:58:10;2.78;;;0.20;;
64142;SDS011;50437;51.970;5.904;2023-03-04T11:00:42;2.90;;;0.15;;
64142;SDS011;50437;51.970;5.904;2023-03-04T11:08:58;4.45;;;0.20;;
64142;SDS011;50437;51.970;5.904;2023-03-04T11:11:27;4.32;;;0.20;;
64142;SDS011;50437;51.970;5.904;2023-03-04T11:14:15;4.50;;;0.55;;
64142;SDS011;50437;51.970;5.904;2023-03-04T11:17:01;2.40;;;0.20;;
64142;SDS011;50437;51.970;5.904;2023-03-04T11:19:41;4.45;;;0.30;;
64142;SDS011;50437;51.970;5.904;2023-03-04T11:22:16;7.35;;;0.28;;
64142;SDS011;50437;51.970;5.904;2023-03-04T11:24:46;1.10;;;0.28;;
64142;SDS011;50437;51.970;5.904;2023-03-04T11:27:28;0.70;;;0.10;;
64142;SDS011;50437;51.970;5.904;2023-03-04T11:30:24;0.47;;;0.10;;
64142;SDS011;50437;51.970;5.904;2023-03-04T11:33:00;1.25;;;0.20;;
64142;SDS011;50437;51.970;5.904;2023-03-04T11:35:46;2.38;;;0.10;;
64142;SDS011;50437;51.970;5.904;2023-03-04T11:38:21;2.25;;;0.03;;
64142;SDS011;50437;51.970;5.904;2023-03-04T11:40:56;0.47;;;0.10;;
64142;SDS011;50437;51.970;5.904;2023-03-04T11:43:26;0.50;;;0.20;;
64142;SDS011;50437;51.970;5.904;2023-03-04T11:54:13;0.32;;;0.10;;
64142;SDS011;50437;51.970;5.904;2023-03-04T11:57:01;0.30;;;0.10;;
64142;SDS011;50437;51.970;5.904;2023-03-04T11:59:38;0.30;;;0.10;;
64142;SDS011;50437;51.970;5.904;2023-03-04T12:02:31;0.65;;;0.20;;
64142;SDS011;50437;51.970;5.904;2023-03-04T12:07:58;0.30;;;0.10;;
64142;SDS011;50437;51.970;5.904;2023-03-04T12:10:56;1.30;;;0.20;;
64142;SDS011;50437;51.970;5.904;2023-03-04T12:19:49;4.97;;;0.40;;
64142;SDS011;50437;51.970;5.904;2023-03-04T12:22:26;2.03;;;0.20;;
64142;SDS011;50437;51.970;5.904;2023-03-04T12:25:02;1.83;;;0.20;;
64142;SDS011;50437;51.970;5.904;2023-03-04T12:35:53;2.40;;;0.17;;
64142;SDS011;50437;51.970;5.904;2023-03-04T12:44:01;0.65;;;0.10;;
64142;SDS011;50437;51.970;5.904;2023-03-04T12:54:40;3.15;;;0.20;;
64142;SDS011;50437;51.970;5.904;2023-03-04T12:57:12;6.03;;;0.82;;
64142;SDS011;50437;51.970;5.904;2023-03-04T13:02:46;4.72;;;0.50;;
64142;SDS011;50437;51.970;5.904;2023-03-04T13:33:00;3.75;;;0.40;;
64142;SDS011;50437;51.970;5.904;2023-03-04T13:43:45;4.55;;;0.25;;
64142;SDS011;50437;51.970;5.904;2023-03-04T13:53:51;10.70;;;0.45;;
64142;SDS011;50437;51.970;5.904;2023-03-04T13:56:28;5.82;;;0.35;;
64142;SDS011;50437;51.970;5.904;2023-03-04T14:01:30;8.98;;;0.88;;
64142;SDS011;50437;51.970;5.904;2023-03-04T14:03:58;8.95;;;0.70;;
64142;SDS011;50437;51.970;5.904;2023-03-04T14:11:32;7.05;;;0.32;;
64142;SDS011;50437;51.970;5.904;2023-03-04T14:14:04;6.25;;;0.30;;
64142;SDS011;50437;51.970;5.904;2023-03-04T14:16:34;9.73;;;0.73;;
64142;SDS011;50437;51.970;5.904;2023-03-04T14:19:06;5.30;;;0.77;;
64142;SDS011;50437;51.970;5.904;2023-03-04T14:21:42;11.32;;;1.25;;
64142;SDS011;50437;51.970;5.904;2023-03-04T14:24:14;8.35;;;0.70;;
64142;SDS011;50437;51.970;5.904;2023-03-04T14:26:42;6.90;;;0.65;;
64142;SDS011;50437;51.970;5.904;2023-03-04T14:29:25;9.80;;;0.70;;
64142;SDS011;50437;51.970;5.904;2023-03-04T14:31:52;11.23;;;0.40;;
64142;SDS011;50437;51.970;5.904;2023-03-04T14:36:50;9.82;;;0.90;;
64142;SDS011;50437;51.970;5.904;2023-03-04T14:39:19;6.95;;;0.70;;
64142;SDS011;50437;51.970;5.904;2023-03-04T14:41:49;5.25;;;0.38;;
64142;SDS011;50437;51.970;5.904;2023-03-04T14:44:33;5.93;;;0.55;;
64142;SDS011;50437;51.970;5.904;2023-03-04T14:47:08;7.13;;;0.63;;
64142;SDS011;50437;51.970;5.904;2023-03-04T14:49:58;7.38;;;0.68;;
64142;SDS011;50437;51.970;5.904;2023-03-04T14:52:26;2.83;;;0.25;;
64142;SDS011;50437;51.970;5.904;2023-03-04T14:55:24;6.70;;;0.47;;
64142;SDS011;50437;51.970;5.904;2023-03-04T14:57:52;7.78;;;0.20;;
64142;SDS011;50437;51.970;5.904;2023-03-04T15:00:31;8.13;;;0.75;;
64142;SDS011;50437;51.970;5.904;2023-03-04T15:03:03;6.53;;;0.30;;
64142;SDS011;50437;51.970;5.904;2023-03-04T15:05:48;8.40;;;0.30;;
64142;SDS011;50437;51.970;5.904;2023-03-04T15:08:21;10.07;;;0.52;;
64142;SDS011;50437;51.970;5.904;2023-03-04T15:10:57;3.88;;;0.50;;
64142;SDS011;50437;51.970;5.904;2023-03-04T15:13:42;9.75;;;3.10;;
64142;SDS011;50437;51.970;5.904;2023-03-04T15:16:11;2.63;;;0.40;;
64142;SDS011;50437;51.970;5.904;2023-03-04T15:18:52;2.42;;;0.20;;
64142;SDS011;50437;51.970;5.904;2023-03-04T15:21:31;5.13;;;0.30;;
64142;SDS011;50437;51.970;5.904;2023-03-04T15:24:03;1.05;;;0.10;;
64142;SDS011;50437;51.970;5.904;2023-03-04T15:26:31;3.65;;;0.40;;
64142;SDS011;50437;51.970;5.904;2023-03-04T15:29:11;2.55;;;0.10;;
64142;SDS011;50437;51.970;5.904;2023-03-04T15:31:43;3.13;;;0.10;;
64142;SDS011;50437;51.970;5.904;2023-03-04T15:34:13;2.45;;;0.10;;
64142;SDS011;50437;51.970;5.904;2023-03-04T15:36:44;0.90;;;0.22;;
64142;SDS011;50437;51.970;5.904;2023-03-04T15:39:13;1.38;;;0.10;;
64142;SDS011;50437;51.970;5.904;2023-03-04T15:41:41;1.73;;;0.20;;
64142;SDS011;50437;51.970;5.904;2023-03-04T15:44:08;1.70;;;0.10;;
64142;SDS011;50437;51.970;5.904;2023-03-04T15:46:34;1.63;;;0.15;;
64142;SDS011;50437;51.970;5.904;2023-03-04T15:49:03;4.60;;;0.20;;
64142;SDS011;50437;51.970;5.904;2023-03-04T15:51:31;3.97;;;0.10;;
64142;SDS011;50437;51.970;5.904;2023-03-04T15:54:00;5.00;;;0.20;;
64142;SDS011;50437;51.970;5.904;2023-03-04T15:56:30;2.80;;;0.30;;
64142;SDS011;50437;51.970;5.904;2023-03-04T15:59:08;4.70;;;0.25;;
64142;SDS011;50437;51.970;5.904;2023-03-04T16:01:36;4.60;;;0.60;;
64142;SDS011;50437;51.970;5.904;2023-03-04T16:04:03;5.80;;;0.30;;
64142;SDS011;50437;51.970;5.904;2023-03-04T16:06:31;7.13;;;1.10;;
64142;SDS011;50437;51.970;5.904;2023-03-04T16:08:58;14.43;;;1.67;;
64142;SDS011;50437;51.970;5.904;2023-03-04T16:13:52;10.13;;;0.40;;
64142;SDS011;50437;51.970;5.904;2023-03-04T16:16:25;8.57;;;0.40;;
64142;SDS011;50437;51.970;5.904;2023-03-04T16:18:54;7.45;;;0.30;;
64142;SDS011;50437;51.970;5.904;2023-03-04T16:21:20;7.93;;;0.73;;
64142;SDS011;50437;51.970;5.904;2023-03-04T16:23:49;7.57;;;1.08;;
64142;SDS011;50437;51.970;5.904;2023-03-04T16:26:19;4.95;;;0.63;;
64142;SDS011;50437;51.970;5.904;2023-03-04T16:28:51;15.35;;;0.70;;
64142;SDS011;50437;51.970;5.904;2023-03-04T16:31:18;11.43;;;0.98;;
64142;SDS011;50437;51.970;5.904;2023-03-04T16:33:45;3.92;;;0.32;;
64142;SDS011;50437;51.970;5.904;2023-03-04T16:36:19;7.05;;;0.38;;
64142;SDS011;50437;51.970;5.904;2023-03-04T16:38:47;11.68;;;0.60;;
64142;SDS011;50437;51.970;5.904;2023-03-04T16:41:15;9.07;;;1.23;;
64142;SDS011;50437;51.970;5.904;2023-03-04T16:43:42;6.15;;;0.30;;
64142;SDS011;50437;51.970;5.904;2023-03-04T16:46:11;5.43;;;0.32;;
64142;SDS011;50437;51.970;5.904;2023-03-04T16:48:38;9.50;;;0.30;;
64142;SDS011;50437;51.970;5.904;2023-03-04T16:51:10;9.50;;;0.80;;
64142;SDS011;50437;51.970;5.904;2023-03-04T16:53:51;11.52;;;0.82;;
64142;SDS011;50437;51.970;5.904;2023-03-04T16:56:20;9.52;;;0.40;;
64142;SDS011;50437;51.970;5.904;2023-03-04T16:58:53;10.15;;;0.60;;
64142;SDS011;50437;51.970;5.904;2023-03-04T17:01:23;10.23;;;1.85;;
64142;SDS011;50437;51.970;5.904;2023-03-04T17:03:51;10.55;;;0.30;;
64142;SDS011;50437;51.970;5.904;2023-03-04T17:06:18;7.00;;;0.68;;
64142;SDS011;50437;51.970;5.904;2023-03-04T17:08:45;8.65;;;0.75;;
64142;SDS011;50437;51.970;5.904;2023-03-04T17:11:15;14.55;;;0.82;;
64142;SDS011;50437;51.970;5.904;2023-03-04T17:13:43;9.20;;;0.60;;